createdAt,value
2022-10-19T00:02:11.032Z,0.80
2022-10-19T00:04:38.716Z,0.80
2022-10-19T00:07:06.346Z,0.70
2022-10-19T00:09:33.991Z,0.80
2022-10-19T00:12:03.002Z,0.90
2022-10-19T00:14:30.633Z,0.70
2022-10-19T00:16:58.412Z,0.80
2022-10-19T00:19:27.732Z,0.80
2022-10-19T00:21:55.453Z,0.70
2022-10-19T00:24:23.111Z,0.80
2022-10-19T00:26:50.851Z,0.80
2022-10-19T00:29:21.302Z,0.75
2022-10-19T00:31:50.196Z,0.90
2022-10-19T00:34:17.975Z,0.80
2022-10-19T00:36:45.937Z,0.60
2022-10-19T00:39:14.878Z,0.80
2022-10-19T00:41:44.851Z,0.65
2022-10-19T00:44:51.354Z,0.73
2022-10-19T00:47:20.362Z,0.70
2022-10-19T00:49:47.996Z,0.70
2022-10-19T00:52:16.872Z,0.70
2022-10-19T00:54:45.227Z,0.60
2022-10-19T00:57:12.863Z,0.60
2022-10-19T00:59:40.708Z,0.80
2022-10-19T01:02:08.476Z,0.75
2022-10-19T01:04:38.823Z,0.88
2022-10-19T01:07:06.811Z,1.00
2022-10-19T01:09:34.472Z,0.90
2022-10-19T01:12:04.995Z,0.70
2022-10-19T01:14:37.746Z,0.60
2022-10-19T01:17:08.744Z,0.70
2022-10-19T01:19:50.993Z,0.70
2022-10-19T01:22:23.587Z,0.70
2022-10-19T01:24:58.439Z,0.60
2022-10-19T01:27:54.057Z,0.90
2022-10-19T01:30:29.192Z,0.70
2022-10-19T01:33:07.843Z,0.57
2022-10-19T01:35:38.271Z,0.80
2022-10-19T01:38:10.163Z,0.80
2022-10-19T01:40:42.287Z,0.80
2022-10-19T01:43:12.492Z,0.70
2022-10-19T01:45:42.491Z,0.70
2022-10-19T01:48:11.768Z,0.70
2022-10-19T01:50:40.267Z,0.70
2022-10-19T01:53:08.971Z,0.70
2022-10-19T01:55:36.742Z,0.80
2022-10-19T01:58:08.316Z,0.70
2022-10-19T02:00:38.306Z,0.68
2022-10-19T02:03:07.340Z,0.60
2022-10-19T02:05:35.184Z,0.55
2022-10-19T02:08:04.956Z,0.60
2022-10-19T02:10:32.666Z,0.70
2022-10-19T02:13:00.282Z,0.70
2022-10-19T02:15:28.128Z,0.70
2022-10-19T02:17:57.268Z,0.70
2022-10-19T02:20:26.661Z,0.60
2022-10-19T02:22:54.328Z,0.40
2022-10-19T02:25:22.195Z,0.60
2022-10-19T02:27:49.850Z,0.70
2022-10-19T02:30:18.143Z,0.60
2022-10-19T02:32:45.834Z,0.70
2022-10-19T02:35:13.512Z,0.80
2022-10-19T02:37:42.538Z,0.60
2022-10-19T02:40:10.897Z,0.60
2022-10-19T02:42:40.658Z,0.68
2022-10-19T02:45:09.220Z,0.68
2022-10-19T02:47:39.481Z,0.70
2022-10-19T02:50:07.951Z,0.70
2022-10-19T02:52:37.749Z,0.50
2022-10-19T02:55:07.584Z,0.63
2022-10-19T02:57:35.761Z,0.63
2022-10-19T03:00:04.129Z,0.60
2022-10-19T03:02:31.764Z,0.50
2022-10-19T03:04:59.461Z,0.60
2022-10-19T03:07:27.210Z,0.60
2022-10-19T03:09:54.844Z,0.65
2022-10-19T03:12:23.812Z,0.60
2022-10-19T03:14:51.492Z,0.90
2022-10-19T03:17:19.219Z,0.70
2022-10-19T03:19:46.895Z,0.50
2022-10-19T03:22:14.730Z,0.70
2022-10-19T03:24:42.412Z,0.60
2022-10-19T03:27:10.062Z,0.60
2022-10-19T03:29:39.045Z,0.70
2022-10-19T03:32:06.757Z,0.60
2022-10-19T03:34:34.430Z,0.60
2022-10-19T03:37:02.076Z,0.60
2022-10-19T03:39:29.735Z,0.55
2022-10-19T03:41:57.403Z,0.57
2022-10-19T03:44:25.032Z,0.50
2022-10-19T03:46:53.998Z,0.50
2022-10-19T03:49:21.783Z,0.50
2022-10-19T03:51:49.456Z,0.70
2022-10-19T03:54:17.899Z,0.60
2022-10-19T03:56:45.784Z,0.70
2022-10-19T03:59:14.173Z,0.57
2022-10-19T04:01:43.062Z,0.52
2022-10-19T04:04:13.176Z,0.68
2022-10-19T04:06:42.215Z,0.60
2022-10-19T04:09:10.207Z,0.65
2022-10-19T04:11:38.166Z,0.47
2022-10-19T04:14:06.026Z,0.60
2022-10-19T04:16:33.802Z,0.50
2022-10-19T04:19:01.624Z,0.57
2022-10-19T04:21:31.490Z,0.63
2022-10-19T04:24:00.876Z,0.50
2022-10-19T04:26:28.597Z,0.73
2022-10-19T04:28:58.176Z,0.57
2022-10-19T04:31:25.959Z,0.60
2022-10-19T04:33:53.675Z,0.63
2022-10-19T04:36:22.055Z,0.60
2022-10-19T04:38:51.058Z,0.60
2022-10-19T04:41:19.680Z,0.68
2022-10-19T04:43:47.479Z,0.50
2022-10-19T04:46:16.217Z,0.57
2022-10-19T04:48:45.492Z,0.60
2022-10-19T04:51:14.268Z,0.50
2022-10-19T04:53:42.402Z,0.50
2022-10-19T04:56:13.318Z,0.60
2022-10-19T04:58:41.058Z,0.60
2022-10-19T05:01:10.478Z,0.47
2022-10-19T05:03:38.324Z,0.50
2022-10-19T05:06:06.288Z,0.50
2022-10-19T05:08:34.087Z,0.60
2022-10-19T05:11:02.951Z,0.50
2022-10-19T05:13:32.178Z,0.50
2022-10-19T05:16:00.372Z,0.60
2022-10-19T05:18:28.589Z,0.63
2022-10-19T05:21:02.861Z,0.50
2022-10-19T05:26:03.796Z,0.60
2022-10-19T05:28:33.068Z,0.50
2022-10-19T05:31:07.716Z,0.60
2022-10-19T05:33:35.425Z,0.68
2022-10-19T05:36:12.542Z,0.60
2022-10-19T05:38:40.232Z,0.60
2022-10-19T05:41:07.996Z,0.50
2022-10-19T05:43:37.095Z,0.60
2022-10-19T05:46:06.084Z,0.40
2022-10-19T05:48:33.953Z,0.50
2022-10-19T05:51:02.188Z,0.70
2022-10-19T05:53:30.020Z,0.50
2022-10-19T05:55:57.889Z,0.50
2022-10-19T05:58:25.799Z,0.70
2022-10-19T06:00:55.438Z,0.52
2022-10-19T06:03:23.168Z,0.50
2022-10-19T06:05:50.903Z,0.40
2022-10-19T06:08:18.771Z,0.60
2022-10-19T06:10:46.541Z,0.60
2022-10-19T06:13:14.376Z,0.50
2022-10-19T06:15:42.143Z,0.43
2022-10-19T06:18:11.852Z,0.63
2022-10-19T06:20:40.336Z,0.50
2022-10-19T06:23:08.192Z,0.60
2022-10-19T06:25:36.227Z,0.60
2022-10-19T06:28:04.051Z,0.40
2022-10-19T06:30:31.755Z,0.60
2022-10-19T06:32:59.779Z,0.40
2022-10-19T06:35:28.864Z,0.50
2022-10-19T06:37:57.469Z,0.50
2022-10-19T06:40:25.256Z,0.65
2022-10-19T06:42:53.106Z,0.50
2022-10-19T06:45:20.768Z,0.50
2022-10-19T06:47:48.501Z,0.60
2022-10-19T06:50:16.252Z,0.50
2022-10-19T06:52:46.001Z,0.43
2022-10-19T06:55:13.694Z,0.50
2022-10-19T06:57:41.407Z,0.60
2022-10-19T07:00:10.008Z,0.50
2022-10-19T07:02:37.677Z,0.52
2022-10-19T07:05:06.232Z,0.50
2022-10-19T07:07:35.272Z,0.50
2022-10-19T07:10:04.971Z,0.70
2022-10-19T07:12:32.651Z,0.40
2022-10-19T07:15:00.324Z,0.40
2022-10-19T07:17:28.032Z,0.70
2022-10-19T07:19:55.956Z,0.45
2022-10-19T07:22:27.959Z,0.43
2022-10-19T07:24:56.019Z,0.75
2022-10-19T07:27:25.326Z,0.60
2022-10-19T07:29:53.011Z,0.43
2022-10-19T07:32:20.992Z,0.50
2022-10-19T07:34:48.708Z,0.50
2022-10-19T07:37:16.382Z,0.57
2022-10-19T07:39:44.045Z,0.60
2022-10-19T07:42:11.808Z,0.60
2022-10-19T07:44:40.923Z,0.55
2022-10-19T07:47:08.591Z,0.50
2022-10-19T07:49:36.293Z,0.50
2022-10-19T07:52:04.126Z,0.40
2022-10-19T07:54:31.783Z,0.60
2022-10-19T07:56:59.443Z,0.47
2022-10-19T07:59:27.170Z,0.65
2022-10-19T08:01:59.429Z,0.63
2022-10-19T08:07:14.777Z,0.57
2022-10-19T08:09:57.792Z,0.65
2022-10-19T08:12:25.475Z,0.40
2022-10-19T08:14:54.819Z,0.60
2022-10-19T08:17:23.819Z,0.57
2022-10-19T08:19:51.550Z,0.50
2022-10-19T08:22:19.216Z,0.50
2022-10-19T08:24:46.974Z,0.63
2022-10-19T08:27:15.654Z,0.55
2022-10-19T08:29:43.357Z,0.60
2022-10-19T08:32:11.354Z,0.55
2022-10-19T08:34:41.319Z,0.50
2022-10-19T08:37:19.842Z,0.50
2022-10-19T08:39:56.662Z,0.55
2022-10-19T08:42:25.780Z,0.57
2022-10-19T08:45:04.652Z,0.63
2022-10-19T08:47:45.471Z,0.60
2022-10-19T08:50:19.256Z,0.52
2022-10-19T08:52:47.197Z,0.50
2022-10-19T08:55:19.704Z,0.50
2022-10-19T08:57:51.518Z,0.50
2022-10-19T09:00:21.868Z,0.50
2022-10-19T09:02:55.638Z,0.60
2022-10-19T09:05:28.554Z,0.60
2022-10-19T09:07:56.274Z,0.60
2022-10-19T09:10:25.512Z,0.60
2022-10-19T09:12:58.405Z,0.40
2022-10-19T09:15:28.001Z,0.60
2022-10-19T09:17:56.190Z,0.50
2022-10-19T09:20:27.524Z,0.45
2022-10-19T09:23:01.602Z,0.57
2022-10-19T09:25:29.317Z,0.60
2022-10-19T09:30:34.450Z,0.60
2022-10-19T09:33:02.833Z,0.65
2022-10-19T09:35:33.175Z,0.60
2022-10-19T09:38:00.900Z,0.68
2022-10-19T09:40:29.647Z,0.60
2022-10-19T09:43:08.652Z,0.50
2022-10-19T09:45:37.535Z,0.57
2022-10-19T09:48:12.785Z,0.60
2022-10-19T09:50:43.468Z,0.82
2022-10-19T09:53:16.898Z,0.60
2022-10-19T09:55:45.043Z,0.50
2022-10-19T09:58:17.676Z,0.55
2022-10-19T10:00:46.336Z,0.63
2022-10-19T10:03:27.996Z,0.50
2022-10-19T10:05:57.783Z,0.52
2022-10-19T10:08:26.955Z,0.50
2022-10-19T10:10:57.600Z,0.50
2022-10-19T10:13:27.488Z,0.70
2022-10-19T10:15:57.324Z,0.57
2022-10-19T10:18:25.672Z,0.55
2022-10-19T10:21:04.773Z,0.60
2022-10-19T10:23:36.338Z,0.60
2022-10-19T10:26:04.573Z,0.50
2022-10-19T10:28:32.392Z,0.60
2022-10-19T10:31:01.598Z,0.55
2022-10-19T10:33:45.938Z,0.60
2022-10-19T10:36:15.224Z,0.55
2022-10-19T10:38:44.442Z,0.68
2022-10-19T10:41:13.251Z,0.60
2022-10-19T10:46:25.579Z,0.50
2022-10-19T10:48:54.380Z,0.60
2022-10-19T10:51:24.823Z,0.65
2022-10-19T10:53:52.485Z,0.50
2022-10-19T10:56:25.493Z,0.60
2022-10-19T10:58:57.137Z,0.60
2022-10-19T11:01:27.795Z,0.80
2022-10-19T11:03:58.344Z,0.50
2022-10-19T11:06:27.510Z,0.50
2022-10-19T11:09:00.382Z,0.52
2022-10-19T11:11:31.295Z,0.90
2022-10-19T11:14:01.087Z,0.70
2022-10-19T11:16:30.863Z,0.60
2022-10-19T11:19:01.432Z,0.70
2022-10-19T11:21:32.721Z,0.50
2022-10-19T11:24:05.559Z,0.85
2022-10-19T11:26:42.890Z,0.77
2022-10-19T11:29:22.327Z,1.42
2022-10-19T11:31:51.413Z,1.20
2022-10-19T11:34:30.953Z,1.33
2022-10-19T11:37:03.199Z,0.95
2022-10-19T11:39:37.265Z,0.95
2022-10-19T11:42:09.596Z,1.40
2022-10-19T11:44:43.270Z,1.60
2022-10-19T11:47:21.351Z,1.38
2022-10-19T11:49:54.288Z,1.40
2022-10-19T11:52:26.894Z,2.33
2022-10-19T11:55:00.140Z,2.00
2022-10-19T11:57:28.944Z,2.28
2022-10-19T12:00:14.096Z,2.42
2022-10-19T12:03:05.378Z,2.17
2022-10-19T12:05:34.474Z,2.05
2022-10-19T12:08:10.773Z,1.85
2022-10-19T12:10:41.330Z,1.95
2022-10-19T12:13:11.257Z,1.92
2022-10-19T12:15:40.407Z,2.15
2022-10-19T12:18:13.278Z,2.70
2022-10-19T12:20:43.982Z,2.22
2022-10-19T12:23:22.558Z,2.65
2022-10-19T12:25:50.243Z,3.20
2022-10-19T12:28:21.824Z,2.28
2022-10-19T12:30:49.696Z,2.33
2022-10-19T12:33:20.802Z,2.05
2022-10-19T12:36:06.463Z,2.38
2022-10-19T12:38:45.089Z,2.33
2022-10-19T12:41:19.402Z,2.15
2022-10-19T12:43:58.421Z,3.80
2022-10-19T12:46:30.171Z,3.83
2022-10-19T12:49:35.414Z,3.13
2022-10-19T12:52:03.097Z,2.03
2022-10-19T12:54:33.131Z,3.75
2022-10-19T12:57:02.639Z,2.40
2022-10-19T12:59:31.148Z,1.60
2022-10-19T13:01:59.177Z,5.18
2022-10-19T13:04:27.855Z,1.50
2022-10-19T13:07:01.333Z,2.25
2022-10-19T13:09:32.982Z,2.50
2022-10-19T13:12:29.634Z,1.60
2022-10-19T13:14:57.472Z,2.00
2022-10-19T13:17:43.732Z,1.90
2022-10-19T13:20:49.570Z,1.50
2022-10-19T13:23:38.551Z,1.90
2022-10-19T13:26:32.752Z,1.92
2022-10-19T13:29:00.775Z,1.60
2022-10-19T13:31:29.598Z,1.85
2022-10-19T13:33:57.478Z,2.00
2022-10-19T13:36:25.504Z,1.67
2022-10-19T13:39:05.796Z,2.33
2022-10-19T13:41:48.655Z,2.33
2022-10-19T13:44:20.673Z,2.15
2022-10-19T13:47:03.564Z,3.50
2022-10-19T13:49:41.072Z,2.00
2022-10-19T13:52:31.172Z,3.10
2022-10-19T13:55:23.304Z,2.75
2022-10-19T13:58:02.842Z,2.60
2022-10-19T14:00:30.886Z,4.88
2022-10-19T14:03:26.444Z,1.23
2022-10-19T14:06:08.842Z,2.55
2022-10-19T14:08:57.330Z,2.00
2022-10-19T14:11:26.462Z,1.42
2022-10-19T14:14:15.048Z,1.10
2022-10-19T14:16:47.705Z,1.92
2022-10-19T14:19:15.724Z,1.75
2022-10-19T14:21:43.433Z,1.67
2022-10-19T14:24:22.044Z,1.10
2022-10-19T14:26:49.766Z,1.50
2022-10-19T14:29:18.894Z,1.65
2022-10-19T14:31:46.672Z,2.00
2022-10-19T14:34:14.686Z,1.45
2022-10-19T14:36:45.204Z,1.52
2022-10-19T14:39:23.735Z,1.95
2022-10-19T14:41:54.348Z,1.50
2022-10-19T14:44:39.603Z,1.83
2022-10-19T14:47:19.690Z,2.40
2022-10-19T14:49:47.685Z,1.63
2022-10-19T14:52:17.498Z,1.65
2022-10-19T14:54:46.012Z,3.58
2022-10-19T14:57:15.544Z,1.80
2022-10-19T14:59:46.698Z,1.58
2022-10-19T15:02:18.197Z,1.60
2022-10-19T15:04:46.320Z,1.20
2022-10-19T15:07:16.996Z,1.27
2022-10-19T15:09:49.325Z,1.60
2022-10-19T15:12:17.896Z,1.05
2022-10-19T15:14:47.084Z,2.15
2022-10-19T15:17:28.341Z,2.60
2022-10-19T15:19:56.570Z,2.20
2022-10-19T15:22:26.665Z,2.03
2022-10-19T15:25:01.977Z,2.53
2022-10-19T15:27:31.598Z,1.77
2022-10-19T15:30:01.937Z,2.50
2022-10-19T15:32:32.994Z,2.70
2022-10-19T15:35:00.994Z,3.38
2022-10-19T15:37:28.717Z,2.80
2022-10-19T15:39:56.408Z,3.58
2022-10-19T15:42:44.016Z,3.50
2022-10-19T15:45:34.592Z,2.70
2022-10-19T15:48:25.279Z,4.13
2022-10-19T15:50:53.051Z,2.97
2022-10-19T15:53:20.881Z,4.22
2022-10-19T15:55:48.619Z,6.18
2022-10-19T15:58:17.065Z,2.38
2022-10-19T16:00:46.148Z,4.45
2022-10-19T16:03:13.982Z,2.55
2022-10-19T16:05:41.711Z,3.38
2022-10-19T16:08:12.479Z,2.85
2022-10-19T16:10:40.390Z,3.28
2022-10-19T16:13:08.150Z,3.22
2022-10-19T16:15:35.909Z,3.22
2022-10-19T16:18:04.976Z,3.30
2022-10-19T16:20:32.767Z,3.72
2022-10-19T16:23:00.539Z,2.85
2022-10-19T16:25:28.233Z,2.42
2022-10-19T16:27:55.924Z,2.15
2022-10-19T16:30:24.170Z,4.32
2022-10-19T16:32:51.874Z,2.90
2022-10-19T16:35:20.895Z,4.47
2022-10-19T16:37:48.602Z,3.70
2022-10-19T16:40:16.455Z,4.55
2022-10-19T16:42:44.178Z,3.60
2022-10-19T16:45:12.279Z,4.50
2022-10-19T16:47:39.926Z,4.25
2022-10-19T16:50:08.403Z,3.67
2022-10-19T16:52:37.782Z,3.72
2022-10-19T16:55:06.595Z,3.88
2022-10-19T16:57:34.392Z,3.45
2022-10-19T17:00:02.092Z,3.40
2022-10-19T17:02:29.798Z,6.18
2022-10-19T17:04:57.488Z,3.90
2022-10-19T17:07:25.224Z,4.80
2022-10-19T17:09:54.982Z,4.03
2022-10-19T17:12:22.896Z,3.88
2022-10-19T17:14:51.176Z,4.18
2022-10-19T17:17:18.874Z,3.85
2022-10-19T17:19:46.715Z,3.97
2022-10-19T17:22:14.368Z,3.85
2022-10-19T17:24:42.009Z,3.88
2022-10-19T17:27:11.009Z,3.75
2022-10-19T17:29:38.683Z,3.70
2022-10-19T17:32:06.730Z,3.30
2022-10-19T17:34:34.411Z,4.10
2022-10-19T17:37:02.175Z,3.50
2022-10-19T17:39:30.262Z,3.17
2022-10-19T17:42:01.202Z,3.15
2022-10-19T17:44:31.261Z,3.20
2022-10-19T17:46:59.087Z,3.40
2022-10-19T17:49:26.799Z,3.55
2022-10-19T17:51:54.463Z,3.13
2022-10-19T17:54:22.149Z,3.20
2022-10-19T17:56:49.884Z,3.17
2022-10-19T17:59:22.579Z,3.42
2022-10-19T18:01:58.802Z,3.28
2022-10-19T18:04:26.578Z,3.33
2022-10-19T18:06:54.313Z,2.58
2022-10-19T18:09:22.018Z,2.67
2022-10-19T18:11:49.680Z,2.78
2022-10-19T18:14:17.380Z,2.72
2022-10-19T18:16:46.398Z,2.90
2022-10-19T18:19:16.143Z,3.03
2022-10-19T18:21:45.213Z,2.72
2022-10-19T18:24:16.589Z,3.10
2022-10-19T18:26:44.343Z,3.30
2022-10-19T18:29:13.473Z,2.28
2022-10-19T18:31:41.352Z,2.90
2022-10-19T18:34:09.743Z,2.53
2022-10-19T18:36:38.984Z,2.70
2022-10-19T18:39:07.417Z,2.70
2022-10-19T18:41:35.111Z,2.25
2022-10-19T18:44:05.033Z,2.85
2022-10-19T18:46:33.470Z,2.63
2022-10-19T18:49:01.171Z,2.88
2022-10-19T18:51:29.196Z,2.42
2022-10-19T18:53:58.201Z,2.67
2022-10-19T18:56:26.227Z,2.22
2022-10-19T18:58:53.890Z,2.65
2022-10-19T19:01:24.019Z,2.53
2022-10-19T19:03:53.387Z,2.22
2022-10-19T19:06:22.034Z,2.63
2022-10-19T19:08:49.863Z,2.47
2022-10-19T19:11:19.583Z,2.33
2022-10-19T19:13:48.431Z,2.38
2022-10-19T19:16:16.089Z,2.38
2022-10-19T19:18:43.901Z,2.35
2022-10-19T19:21:15.243Z,2.55
2022-10-19T19:23:43.033Z,2.10
2022-10-19T19:26:11.004Z,2.42
2022-10-19T19:28:41.591Z,2.30
2022-10-19T19:31:10.428Z,2.35
2022-10-19T19:33:39.328Z,2.10
2022-10-19T19:36:07.591Z,2.35
2022-10-19T19:38:35.764Z,2.20
2022-10-19T19:41:04.492Z,2.40
2022-10-19T19:43:32.288Z,2.40
2022-10-19T19:46:04.674Z,2.20
2022-10-19T19:48:35.759Z,2.17
2022-10-19T19:51:03.450Z,2.17
2022-10-19T19:53:31.126Z,2.25
2022-10-19T19:55:58.884Z,1.75
2022-10-19T19:58:26.623Z,2.35
2022-10-19T20:00:54.285Z,2.08
2022-10-19T20:03:23.316Z,1.95
2022-10-19T20:05:51.007Z,2.17
2022-10-19T20:08:18.947Z,2.10
2022-10-19T20:10:46.634Z,2.10
2022-10-19T20:13:14.341Z,1.92
2022-10-19T20:15:41.990Z,1.70
2022-10-19T20:18:09.695Z,1.80
2022-10-19T20:20:38.819Z,2.05
2022-10-19T20:23:06.529Z,1.88
2022-10-19T20:25:37.223Z,1.75
2022-10-19T20:28:05.488Z,2.10
2022-10-19T20:30:33.173Z,2.47
2022-10-19T20:33:00.882Z,2.05
2022-10-19T20:35:28.519Z,2.17
2022-10-19T20:37:58.497Z,1.90
2022-10-19T20:40:26.339Z,1.90
2022-10-19T20:42:54.054Z,1.80
2022-10-19T20:45:21.750Z,2.10
2022-10-19T20:47:49.450Z,2.20
2022-10-19T20:50:20.549Z,1.90
2022-10-19T20:52:49.590Z,1.83
2022-10-19T20:55:20.247Z,1.70
2022-10-19T20:57:47.977Z,2.20
2022-10-19T21:00:16.485Z,1.95
2022-10-19T21:02:44.955Z,2.00
2022-10-19T21:05:13.136Z,1.63
2022-10-19T21:07:40.915Z,1.73
2022-10-19T21:10:09.461Z,1.90
2022-10-19T21:12:38.644Z,1.92
2022-10-19T21:15:07.152Z,1.65
2022-10-19T21:17:35.083Z,2.00
2022-10-19T21:20:02.778Z,1.50
2022-10-19T21:22:33.316Z,1.60
2022-10-19T21:25:03.633Z,1.50
2022-10-19T21:27:31.304Z,1.73
2022-10-19T21:30:00.313Z,1.80
2022-10-19T21:32:27.986Z,1.83
2022-10-19T21:34:55.707Z,1.63
2022-10-19T21:37:23.382Z,1.63
2022-10-19T21:39:51.042Z,1.60
2022-10-19T21:42:18.738Z,1.80
2022-10-19T21:44:46.427Z,1.30
2022-10-19T21:47:15.419Z,2.08
2022-10-19T21:49:43.077Z,1.63
2022-10-19T21:52:15.851Z,1.73
2022-10-19T21:54:43.791Z,1.58
2022-10-19T21:57:11.734Z,1.73
2022-10-19T21:59:39.404Z,1.35
2022-10-19T22:02:07.174Z,1.70
2022-10-19T22:04:36.252Z,1.60
2022-10-19T22:07:05.160Z,1.30
2022-10-19T22:09:33.560Z,1.35
2022-10-19T22:12:01.295Z,1.45
2022-10-19T22:14:28.961Z,1.65
2022-10-19T22:16:56.630Z,1.30
2022-10-19T22:19:26.137Z,1.60
2022-10-19T22:21:55.152Z,1.38
2022-10-19T22:24:22.786Z,1.60
2022-10-19T22:26:50.926Z,1.65
2022-10-19T22:29:18.646Z,1.65
2022-10-19T22:31:46.303Z,1.70
2022-10-19T22:34:14.963Z,1.80
2022-10-19T22:36:42.731Z,1.80
2022-10-19T22:39:11.770Z,1.30
2022-10-19T22:41:39.538Z,1.60
2022-10-19T22:44:07.277Z,1.70
2022-10-19T22:46:35.054Z,1.48
2022-10-19T22:49:02.874Z,1.40
2022-10-19T22:51:30.665Z,1.98
2022-10-19T22:53:58.398Z,1.55
2022-10-19T22:56:27.485Z,1.58
2022-10-19T22:58:58.435Z,1.67
2022-10-19T23:01:26.195Z,1.90
2022-10-19T23:03:54.000Z,1.60
2022-10-19T23:06:21.900Z,2.13
2022-10-19T23:08:49.690Z,1.50
2022-10-19T23:11:17.467Z,1.88
2022-10-19T23:13:46.555Z,1.80
2022-10-19T23:16:14.430Z,2.17
2022-10-19T23:18:42.978Z,2.00
2022-10-19T23:21:12.341Z,2.00
2022-10-19T23:23:40.212Z,2.10
2022-10-19T23:26:08.935Z,2.20
2022-10-19T23:28:37.597Z,2.58
2022-10-19T23:31:07.673Z,2.60
2022-10-19T23:33:35.568Z,2.90
2022-10-19T23:36:04.606Z,2.60
2022-10-19T23:38:32.402Z,2.83
2022-10-19T23:41:00.053Z,2.92
2022-10-19T23:43:27.844Z,3.38
2022-10-19T23:45:55.604Z,3.05
2022-10-19T23:48:24.589Z,3.63
2022-10-19T23:50:59.652Z,3.40
2022-10-19T23:53:27.475Z,3.90
2022-10-19T23:55:59.333Z,3.88
2022-10-19T23:58:26.998Z,3.90
